createdAt,value
2023-01-17T00:02:10.671Z,93962.72
2023-01-17T00:05:15.586Z,93975.19
2023-01-17T00:08:20.003Z,93970.25
2023-01-17T00:11:06.268Z,93963.78
2023-01-17T00:13:52.053Z,93985.03
2023-01-17T00:16:37.886Z,93966.78
2023-01-17T00:19:42.142Z,93981.50
2023-01-17T00:22:48.236Z,94001.84
2023-01-17T00:25:53.217Z,94006.72
2023-01-17T00:28:40.830Z,94009.00
2023-01-17T00:31:26.668Z,93993.53
2023-01-17T00:34:12.144Z,94000.72
2023-01-17T00:36:57.962Z,93989.41
2023-01-17T00:39:43.714Z,93982.44
2023-01-17T00:42:29.966Z,93997.34
2023-01-17T00:45:34.689Z,93978.44
2023-01-17T00:48:39.179Z,93983.81
2023-01-17T00:51:44.641Z,93988.91
2023-01-17T00:54:49.174Z,94001.81
2023-01-17T00:57:53.767Z,93983.56
2023-01-17T01:00:58.579Z,93994.19
2023-01-17T01:04:03.024Z,93990.47
2023-01-17T01:07:07.669Z,93986.78
2023-01-17T01:10:12.393Z,93976.53
2023-01-17T01:13:17.286Z,93981.50
2023-01-17T01:16:23.123Z,93969.31
2023-01-17T01:19:27.819Z,93966.22
2023-01-17T01:22:32.681Z,93960.50
2023-01-17T01:25:37.439Z,93965.34
2023-01-17T01:28:42.007Z,93946.50
2023-01-17T01:31:46.896Z,93973.44
2023-01-17T01:34:32.989Z,93971.16
2023-01-17T01:37:18.685Z,93955.13
2023-01-17T01:40:04.944Z,93938.28
2023-01-17T01:42:59.908Z,93947.47
2023-01-17T01:45:51.723Z,93947.63
2023-01-17T01:48:43.751Z,93940.13
2023-01-17T01:51:33.776Z,93937.97
2023-01-17T01:54:28.779Z,93925.09
2023-01-17T01:57:17.742Z,93925.09
2023-01-17T02:00:16.948Z,93933.81
2023-01-17T02:03:06.913Z,93908.41
2023-01-17T02:05:53.145Z,93918.38
2023-01-17T02:08:39.585Z,93914.09
2023-01-17T02:11:25.768Z,93897.53
2023-01-17T02:14:16.603Z,93899.09
2023-01-17T02:17:20.574Z,93862.53
2023-01-17T02:20:21.752Z,93883.16
2023-01-17T02:23:23.148Z,93890.28
2023-01-17T02:26:44.838Z,93888.28
2023-01-17T02:29:33.751Z,93863.19
2023-01-17T02:32:37.264Z,93886.13
2023-01-17T02:35:34.390Z,93873.50
2023-01-17T02:38:48.467Z,93892.00
2023-01-17T02:41:36.522Z,93906.81
2023-01-17T02:44:22.825Z,93918.13
2023-01-17T02:47:21.065Z,93920.13
2023-01-17T02:50:10.445Z,93930.56
2023-01-17T02:52:59.389Z,93933.03
2023-01-17T02:55:54.240Z,93936.75
2023-01-17T02:59:07.007Z,93921.00
2023-01-17T03:02:04.553Z,93934.75
2023-01-17T03:05:02.574Z,93919.81
2023-01-17T03:07:49.633Z,93938.00
2023-01-17T03:10:36.367Z,93922.22
2023-01-17T03:13:22.726Z,93907.81
2023-01-17T03:16:13.490Z,93903.53
2023-01-17T03:18:59.573Z,93878.66
2023-01-17T03:21:45.425Z,93891.00
2023-01-17T03:24:31.286Z,93909.06
2023-01-17T03:27:17.083Z,93903.06
2023-01-17T03:30:03.524Z,93895.69
2023-01-17T03:32:49.984Z,93904.75
2023-01-17T03:35:36.182Z,93892.28
2023-01-17T03:38:22.361Z,93918.88
2023-01-17T03:41:08.824Z,93914.41
2023-01-17T03:43:54.633Z,93910.25
2023-01-17T03:46:40.558Z,93919.56
2023-01-17T03:49:26.579Z,93927.91
2023-01-17T03:52:12.604Z,93934.28
2023-01-17T03:54:58.396Z,93941.78
2023-01-17T03:57:44.228Z,93946.94
2023-01-17T04:00:30.161Z,93929.19
2023-01-17T04:03:15.857Z,93954.72
2023-01-17T04:06:01.786Z,93943.19
2023-01-17T04:08:47.713Z,93896.06
2023-01-17T04:11:33.306Z,93914.53
2023-01-17T04:14:19.225Z,93921.97
2023-01-17T04:17:05.004Z,93919.16
2023-01-17T04:19:50.988Z,93927.69
2023-01-17T04:22:36.838Z,93930.22
2023-01-17T04:25:22.553Z,93942.91
2023-01-17T04:28:08.743Z,93924.78
2023-01-17T04:30:58.137Z,93952.81
2023-01-17T04:33:44.313Z,93965.28
2023-01-17T04:36:30.434Z,93948.38
2023-01-17T04:39:16.313Z,93959.38
2023-01-17T04:42:03.022Z,93968.50
2023-01-17T04:44:49.174Z,93962.03
2023-01-17T04:47:35.034Z,93963.22
2023-01-17T04:50:20.837Z,93955.41
2023-01-17T04:53:07.159Z,93966.44
2023-01-17T04:55:53.023Z,93934.75
2023-01-17T04:58:38.928Z,93962.03
2023-01-17T05:01:25.078Z,93958.75
2023-01-17T05:04:11.344Z,93947.84
2023-01-17T05:06:57.146Z,93946.28
2023-01-17T05:09:43.941Z,93946.06
2023-01-17T05:12:30.122Z,93967.59
2023-01-17T05:15:16.278Z,93972.72
2023-01-17T05:18:02.000Z,93968.19
2023-01-17T05:20:47.948Z,93977.78
2023-01-17T05:23:33.973Z,93971.63
2023-01-17T05:26:19.780Z,93985.97
2023-01-17T05:29:05.706Z,93974.66
2023-01-17T05:31:51.510Z,93987.16
2023-01-17T05:34:37.234Z,93996.28
2023-01-17T05:37:23.129Z,93993.84
2023-01-17T05:40:09.900Z,94006.38
2023-01-17T05:42:57.652Z,94001.75
2023-01-17T05:45:43.949Z,94005.84
2023-01-17T05:48:29.666Z,93997.00
2023-01-17T05:51:15.718Z,93995.38
2023-01-17T05:54:01.526Z,93994.19
2023-01-17T05:56:47.343Z,93967.91
2023-01-17T05:59:37.509Z,93978.66
2023-01-17T06:02:24.041Z,93995.31
2023-01-17T06:05:10.052Z,93990.53
2023-01-17T06:07:56.732Z,93978.66
2023-01-17T06:10:42.600Z,93974.50
2023-01-17T06:13:28.472Z,93969.25
2023-01-17T06:16:14.325Z,93969.44
2023-01-17T06:19:00.102Z,93975.09
2023-01-17T06:21:45.929Z,93989.28
2023-01-17T06:24:31.988Z,93992.50
2023-01-17T06:27:18.223Z,94021.44
2023-01-17T06:30:04.390Z,94022.19
2023-01-17T06:32:55.145Z,94037.63
2023-01-17T06:35:48.393Z,94039.28
2023-01-17T06:38:34.837Z,94040.81
2023-01-17T06:41:20.725Z,94036.06
2023-01-17T06:44:07.875Z,94048.78
2023-01-17T06:46:54.422Z,94037.09
2023-01-17T06:49:40.396Z,94040.38
2023-01-17T06:52:26.294Z,94043.56
2023-01-17T06:55:11.986Z,94029.84
2023-01-17T06:57:59.624Z,94026.22
2023-01-17T07:00:45.908Z,94034.63
2023-01-17T07:03:31.692Z,94030.06
2023-01-17T07:06:17.396Z,94040.28
2023-01-17T07:09:04.449Z,94049.19
2023-01-17T07:11:51.906Z,94043.47
2023-01-17T07:14:37.686Z,94049.63
2023-01-17T07:17:23.652Z,94050.00
2023-01-17T07:20:10.057Z,94065.75
2023-01-17T07:22:55.951Z,94066.19
2023-01-17T07:25:42.094Z,94058.97
2023-01-17T07:28:28.493Z,94083.66
2023-01-17T07:31:14.451Z,94070.25
2023-01-17T07:34:00.740Z,94090.03
2023-01-17T07:36:48.607Z,94090.56
2023-01-17T07:39:34.685Z,94091.00
2023-01-17T07:42:23.839Z,94089.31
2023-01-17T07:45:11.660Z,94088.25
2023-01-17T07:47:58.030Z,94097.59
2023-01-17T07:50:44.499Z,94093.59
2023-01-17T07:53:30.994Z,94096.88
2023-01-17T07:56:17.510Z,94097.59
2023-01-17T07:59:03.516Z,94090.47
2023-01-17T08:01:49.667Z,94100.66
2023-01-17T08:04:35.363Z,94076.31
2023-01-17T08:07:21.444Z,94083.00
2023-01-17T08:10:08.828Z,94103.81
2023-01-17T08:12:55.440Z,94093.91
2023-01-17T08:15:41.377Z,94105.09
2023-01-17T08:18:27.101Z,94088.91
2023-01-17T08:21:15.036Z,94089.03
2023-01-17T08:24:00.920Z,94093.22
2023-01-17T08:26:46.847Z,94098.81
2023-01-17T08:29:32.807Z,94103.22
2023-01-17T08:32:19.946Z,94094.28
2023-01-17T08:35:06.202Z,94100.44
2023-01-17T08:37:54.761Z,94097.63
2023-01-17T08:40:40.544Z,94092.94
2023-01-17T08:43:26.189Z,94105.91
2023-01-17T08:46:12.105Z,94107.09
2023-01-17T08:48:59.178Z,94102.91
2023-01-17T08:51:45.427Z,94106.47
2023-01-17T08:54:31.320Z,94106.34
2023-01-17T08:57:17.060Z,94111.53
2023-01-17T09:00:03.141Z,94109.53
2023-01-17T09:02:52.157Z,94114.06
2023-01-17T09:05:38.025Z,94119.19
2023-01-17T09:08:24.135Z,94118.25
2023-01-17T09:11:12.172Z,94134.56
2023-01-17T09:13:58.263Z,94114.34
2023-01-17T09:16:43.997Z,94109.34
2023-01-17T09:19:29.956Z,94127.91
2023-01-17T09:22:15.908Z,94132.16
2023-01-17T09:25:01.754Z,94126.38
2023-01-17T09:27:47.661Z,94130.34
2023-01-17T09:30:33.556Z,94134.22
2023-01-17T09:33:20.042Z,94136.13
2023-01-17T09:36:06.193Z,94127.66
2023-01-17T09:38:59.064Z,94119.38
2023-01-17T09:41:54.556Z,94117.25
2023-01-17T09:44:54.014Z,94106.69
2023-01-17T09:47:53.745Z,94124.97
2023-01-17T09:50:44.743Z,94114.28
2023-01-17T09:53:33.938Z,94093.19
2023-01-17T09:56:25.074Z,94101.69
2023-01-17T09:59:21.645Z,94086.78
2023-01-17T10:02:14.291Z,94072.69
2023-01-17T10:05:11.025Z,94099.28
2023-01-17T10:08:57.562Z,94082.47
2023-01-17T10:12:18.849Z,94079.56
2023-01-17T10:15:56.460Z,94101.09
2023-01-17T10:18:51.760Z,94098.22
2023-01-17T10:21:50.324Z,94071.88
2023-01-17T10:24:58.004Z,94076.66
2023-01-17T10:27:48.710Z,94048.09
2023-01-17T10:30:39.279Z,94035.03
2023-01-17T10:33:28.937Z,94046.13
2023-01-17T10:36:22.812Z,94064.75
2023-01-17T10:39:34.919Z,94053.47
2023-01-17T10:42:29.249Z,94062.00
2023-01-17T10:45:28.356Z,94062.56
2023-01-17T10:48:29.501Z,94049.16
2023-01-17T10:51:21.940Z,94033.78
2023-01-17T10:54:30.942Z,94029.13
2023-01-17T10:57:21.055Z,94025.34
2023-01-17T11:00:28.678Z,94015.81
2023-01-17T11:03:17.411Z,94000.75
2023-01-17T11:06:26.827Z,93990.59
2023-01-17T11:09:14.060Z,93988.16
2023-01-17T11:12:00.260Z,93971.22
2023-01-17T11:15:01.443Z,93975.09
2023-01-17T11:18:07.498Z,93961.94
2023-01-17T11:20:54.463Z,93959.63
2023-01-17T11:23:42.367Z,93955.19
2023-01-17T11:26:33.072Z,93954.47
2023-01-17T11:29:31.104Z,93949.69
2023-01-17T11:32:32.771Z,93935.66
2023-01-17T11:35:30.279Z,93940.91
2023-01-17T11:38:21.776Z,93931.31
2023-01-17T11:41:28.275Z,93926.13
2023-01-17T11:44:27.517Z,93915.84
2023-01-17T11:47:13.648Z,93912.50
2023-01-17T11:49:59.586Z,93902.44
2023-01-17T11:52:45.387Z,93882.22
2023-01-17T11:55:31.178Z,93857.50
2023-01-17T11:58:17.184Z,93881.91
2023-01-17T12:01:42.289Z,93873.66
2023-01-17T12:04:43.050Z,93864.88
2023-01-17T12:07:45.152Z,93854.28
2023-01-17T12:10:33.614Z,93849.28
2023-01-17T12:13:44.600Z,93852.13
2023-01-17T12:16:39.568Z,93844.47
2023-01-17T12:19:28.782Z,93857.31
2023-01-17T12:22:34.095Z,93856.75
2023-01-17T12:25:37.162Z,93843.22
2023-01-17T12:28:45.782Z,93850.19
2023-01-17T12:31:40.074Z,93825.59
2023-01-17T12:34:40.306Z,93810.41
2023-01-17T12:37:26.477Z,93803.81
2023-01-17T12:40:18.776Z,93817.22
2023-01-17T12:43:29.646Z,93813.94
2023-01-17T12:46:27.343Z,93814.63
2023-01-17T12:49:32.690Z,93822.66
2023-01-17T12:52:36.749Z,93808.69
2023-01-17T12:55:49.878Z,93827.88
2023-01-17T12:58:47.764Z,93820.78
2023-01-17T13:01:39.823Z,93823.78
2023-01-17T13:04:58.051Z,93814.06
2023-01-17T13:08:03.501Z,93812.53
2023-01-17T13:10:54.501Z,93827.25
2023-01-17T13:13:41.356Z,93822.47
2023-01-17T13:16:33.052Z,93815.03
2023-01-17T13:19:21.785Z,93833.91
2023-01-17T13:22:09.505Z,93816.44
2023-01-17T13:25:31.996Z,93802.13
2023-01-17T13:28:34.307Z,93836.16
2023-01-17T13:31:24.753Z,93825.16
2023-01-17T13:34:34.980Z,93845.97
2023-01-17T13:37:42.600Z,93833.03
2023-01-17T13:40:53.753Z,93840.91
2023-01-17T13:44:02.976Z,93858.34
2023-01-17T13:46:53.551Z,93824.84
2023-01-17T13:49:39.414Z,93843.31
2023-01-17T13:52:25.239Z,93842.78
2023-01-17T13:55:43.768Z,93839.13
2023-01-17T13:58:34.062Z,93832.66
2023-01-17T14:01:43.495Z,93817.72
2023-01-17T14:05:09.585Z,93818.28
2023-01-17T14:07:59.369Z,93802.41
2023-01-17T14:10:48.231Z,93813.16
2023-01-17T14:13:35.713Z,93825.53
2023-01-17T14:16:21.605Z,93754.88
2023-01-17T14:19:25.369Z,93817.97
2023-01-17T14:22:55.210Z,93813.06
2023-01-17T14:25:41.325Z,93819.91
2023-01-17T14:28:27.192Z,93808.59
2023-01-17T14:31:15.303Z,93806.41
2023-01-17T14:34:13.033Z,93802.25
2023-01-17T14:37:44.326Z,93794.13
2023-01-17T14:40:35.834Z,93818.56
2023-01-17T14:43:24.135Z,93789.00
2023-01-17T14:46:29.126Z,93782.91
2023-01-17T14:49:24.266Z,93791.34
2023-01-17T14:52:15.426Z,93764.41
2023-01-17T14:55:14.852Z,93769.25
2023-01-17T14:58:01.160Z,93767.66
2023-01-17T15:00:50.088Z,93769.53
2023-01-17T15:03:44.443Z,93755.50
2023-01-17T15:06:39.071Z,93783.59
2023-01-17T15:09:27.555Z,93784.06
2023-01-17T15:12:16.937Z,93805.13
2023-01-17T15:15:03.280Z,93798.88
2023-01-17T15:17:49.557Z,93798.81
2023-01-17T15:20:36.373Z,93798.69
2023-01-17T15:23:23.508Z,93767.94
2023-01-17T15:26:13.874Z,93805.75
2023-01-17T15:29:06.371Z,93801.72
2023-01-17T15:31:54.528Z,93801.78
2023-01-17T15:34:44.779Z,93793.13
2023-01-17T15:37:36.749Z,93809.81
2023-01-17T15:40:24.847Z,93817.31
2023-01-17T15:43:19.411Z,93813.97
2023-01-17T15:46:05.337Z,93792.00
2023-01-17T15:48:51.925Z,93788.59
2023-01-17T15:51:39.082Z,93790.78
2023-01-17T15:54:37.112Z,93771.84
2023-01-17T15:57:29.790Z,93785.34
2023-01-17T16:00:20.453Z,93772.81
2023-01-17T16:03:24.858Z,93768.50
2023-01-17T16:06:29.559Z,93756.06
2023-01-17T16:09:22.661Z,93768.75
2023-01-17T16:12:08.241Z,93756.88
2023-01-17T16:15:11.332Z,93754.19
2023-01-17T16:18:06.837Z,93742.91
2023-01-17T16:21:00.923Z,93755.16
2023-01-17T16:23:49.975Z,93743.22
2023-01-17T16:26:35.759Z,93731.09
2023-01-17T16:29:21.490Z,93716.53
2023-01-17T16:32:08.879Z,93723.16
2023-01-17T16:34:54.922Z,93702.41
2023-01-17T16:37:41.925Z,93689.81
2023-01-17T16:40:30.478Z,93669.72
2023-01-17T16:43:17.934Z,93685.75
2023-01-17T16:46:04.049Z,93683.22
2023-01-17T16:48:49.827Z,93701.75
2023-01-17T16:51:35.768Z,93708.19
2023-01-17T16:54:21.680Z,93735.88
2023-01-17T16:57:07.660Z,93730.84
2023-01-17T16:59:53.700Z,93729.19
2023-01-17T17:02:40.858Z,93740.41
2023-01-17T17:05:26.857Z,93719.72
2023-01-17T17:08:15.351Z,93702.16
2023-01-17T17:11:13.164Z,93719.63
2023-01-17T17:13:59.156Z,93692.56
2023-01-17T17:16:45.388Z,93715.66
2023-01-17T17:19:31.372Z,93722.28
2023-01-17T17:22:17.501Z,93711.00
2023-01-17T17:25:03.958Z,93719.78
2023-01-17T17:27:50.448Z,93722.31
2023-01-17T17:30:36.499Z,93722.00
2023-01-17T17:33:22.279Z,93729.53
2023-01-17T17:36:10.351Z,93737.66
2023-01-17T17:38:57.952Z,93713.31
2023-01-17T17:41:45.639Z,93732.06
2023-01-17T17:44:31.483Z,93691.00
2023-01-17T17:47:17.961Z,93722.22
2023-01-17T17:50:04.214Z,93710.63
2023-01-17T17:52:50.432Z,93702.41
2023-01-17T17:55:36.508Z,93710.53
2023-01-17T17:58:29.790Z,93710.28
2023-01-17T18:01:16.098Z,93706.13
2023-01-17T18:04:03.241Z,93702.97
2023-01-17T18:06:49.160Z,93696.41
2023-01-17T18:09:35.099Z,93694.59
2023-01-17T18:12:20.952Z,93692.97
2023-01-17T18:15:07.187Z,93700.69
2023-01-17T18:17:55.583Z,93712.06
2023-01-17T18:20:41.676Z,93704.91
2023-01-17T18:23:27.829Z,93703.88
2023-01-17T18:26:31.489Z,93703.63
2023-01-17T18:29:19.648Z,93693.06
2023-01-17T18:32:05.764Z,93690.06
2023-01-17T18:34:51.558Z,93658.94
2023-01-17T18:37:37.393Z,93683.53
2023-01-17T18:40:23.455Z,93665.94
2023-01-17T18:43:09.330Z,93662.28
2023-01-17T18:45:55.315Z,93651.53
2023-01-17T18:48:41.738Z,93639.25
2023-01-17T18:51:30.296Z,93660.78
2023-01-17T18:54:17.637Z,93670.31
2023-01-17T18:57:03.596Z,93661.84
2023-01-17T18:59:49.549Z,93650.81
2023-01-17T19:02:35.294Z,93683.88
2023-01-17T19:05:21.733Z,93667.06
2023-01-17T19:08:07.657Z,93689.00
2023-01-17T19:10:54.711Z,93665.75
2023-01-17T19:13:41.959Z,93664.97
2023-01-17T19:16:30.531Z,93655.44
2023-01-17T19:19:16.767Z,93660.31
2023-01-17T19:22:02.757Z,93675.09
2023-01-17T19:24:48.677Z,93652.91
2023-01-17T19:27:34.598Z,93658.69
2023-01-17T19:30:20.773Z,93673.09
2023-01-17T19:33:07.209Z,93657.31
2023-01-17T19:35:52.918Z,93680.38
2023-01-17T19:38:39.159Z,93680.63
2023-01-17T19:41:27.280Z,93662.19
2023-01-17T19:44:14.132Z,93654.78
2023-01-17T19:47:01.276Z,93667.72
2023-01-17T19:49:47.362Z,93673.31
2023-01-17T19:52:33.451Z,93654.69
2023-01-17T19:55:25.631Z,93679.34
2023-01-17T19:58:13.158Z,93660.31
2023-01-17T20:01:16.884Z,93657.53
2023-01-17T20:04:03.497Z,93667.53
2023-01-17T20:06:49.635Z,93669.34
2023-01-17T20:09:35.472Z,93681.56
2023-01-17T20:12:21.494Z,93681.53
2023-01-17T20:15:08.079Z,93694.03
2023-01-17T20:17:54.440Z,93698.03
2023-01-17T20:20:56.343Z,93702.81
2023-01-17T20:23:44.136Z,93719.47
2023-01-17T20:26:35.984Z,93719.38
2023-01-17T20:29:21.827Z,93697.84
2023-01-17T20:32:08.183Z,93688.84
2023-01-17T20:34:54.126Z,93699.34
2023-01-17T20:37:40.144Z,93687.13
2023-01-17T20:40:26.344Z,93678.94
2023-01-17T20:43:12.228Z,93690.31
2023-01-17T20:45:58.284Z,93695.97
2023-01-17T20:48:52.334Z,93682.66
2023-01-17T20:51:39.854Z,93701.44
2023-01-17T20:54:26.180Z,93694.19
2023-01-17T20:57:12.470Z,93686.22
2023-01-17T20:59:58.336Z,93699.63
2023-01-17T21:02:45.370Z,93668.69
2023-01-17T21:05:31.449Z,93701.91
2023-01-17T21:08:18.669Z,93720.63
2023-01-17T21:11:05.360Z,93716.31
2023-01-17T21:13:52.008Z,93703.47
2023-01-17T21:16:41.484Z,93688.09
2023-01-17T21:19:29.331Z,93704.34
2023-01-17T21:22:16.729Z,93725.56
2023-01-17T21:25:02.632Z,93718.56
2023-01-17T21:27:48.633Z,93692.50
2023-01-17T21:30:34.701Z,93702.72
2023-01-17T21:33:21.699Z,93713.47
2023-01-17T21:36:08.566Z,93714.09
2023-01-17T21:38:57.589Z,93718.53
2023-01-17T21:41:45.825Z,93688.16
2023-01-17T21:44:36.373Z,93713.22
2023-01-17T21:47:22.524Z,93715.91
2023-01-17T21:50:09.477Z,93733.22
2023-01-17T21:52:55.404Z,93720.22
2023-01-17T21:56:00.112Z,93726.22
2023-01-17T21:58:48.262Z,93721.41
2023-01-17T22:01:34.368Z,93735.72
2023-01-17T22:04:20.577Z,93759.81
2023-01-17T22:07:06.318Z,93737.84
2023-01-17T22:09:52.208Z,93755.25
2023-01-17T22:12:38.107Z,93737.19
2023-01-17T22:15:24.049Z,93759.81
2023-01-17T22:18:10.874Z,93755.06
2023-01-17T22:20:57.491Z,93750.50
2023-01-17T22:23:52.250Z,93754.78
2023-01-17T22:26:39.938Z,93763.94
2023-01-17T22:29:27.048Z,93747.03
2023-01-17T22:32:13.054Z,93747.28
2023-01-17T22:34:59.024Z,93747.28
2023-01-17T22:37:44.843Z,93752.97
2023-01-17T22:40:32.636Z,93746.00
2023-01-17T22:43:18.854Z,93732.16
2023-01-17T22:46:05.878Z,93734.34
2023-01-17T22:48:52.979Z,93735.72
2023-01-17T22:51:39.741Z,93722.97
2023-01-17T22:54:25.596Z,93719.16
2023-01-17T22:57:11.673Z,93701.84
2023-01-17T22:59:57.618Z,93723.44
2023-01-17T23:02:43.675Z,93717.53
2023-01-17T23:05:29.622Z,93715.59
2023-01-17T23:08:15.446Z,93713.22
2023-01-17T23:11:20.000Z,93701.28
2023-01-17T23:14:06.833Z,93699.75
2023-01-17T23:17:19.462Z,93687.22
2023-01-17T23:20:06.786Z,93709.31
2023-01-17T23:22:52.696Z,93692.34
2023-01-17T23:25:38.927Z,93702.81
2023-01-17T23:28:24.906Z,93696.06
2023-01-17T23:31:12.558Z,93700.47
2023-01-17T23:33:58.631Z,93688.75
2023-01-17T23:36:44.469Z,93675.13
2023-01-17T23:39:30.616Z,93663.59
2023-01-17T23:42:38.689Z,93658.09
2023-01-17T23:45:24.974Z,93655.44
2023-01-17T23:48:11.244Z,93670.53
2023-01-17T23:50:59.261Z,93666.25
2023-01-17T23:53:45.248Z,93652.59
2023-01-17T23:56:31.401Z,93655.94
2023-01-17T23:59:17.665Z,93667.81
